CAS weather

CLOSED Anfa Airport
Casablanca, Casablanca Province, Morocco

Public forecast

Using degrees Celsius for public forecast. Weather courtesy of forecast.io.

METAR (pilot weather report)

Report is more than 2 hours old.

Retrieved 2019/05/25 20:00 UTC (3 hours ago):

GMMC 252000Z 04012KT CAVOK 19/14 Q1013

TAF (pilot weather forecast)

Closest forecast is Mohammed V International Airport, 11.7 nm (21.7 km) SSE. Retrieved 2019/05/25 18:00 UTC (5 hours ago):

TAF GMMN 251700Z 2518/2624 02016KT CAVOK BECMG 2520/2522 04008KT 8000 NSC TEMPO 2602/2608 VRB02KT 3000 BR SCT006 TEMPO 2612/2620 36016KT CAVOK